sensor_id;sensor_type;location;lat;lon;timestamp;temperature;humidity
9383;DHT22;4731;49.708;10.816;2022-12-29T00:00:14;7.10;99.90
9383;DHT22;4731;49.708;10.816;2022-12-29T00:02:42;7.10;99.90
9383;DHT22;4731;49.708;10.816;2022-12-29T00:05:09;7.20;99.90
9383;DHT22;4731;49.708;10.816;2022-12-29T00:07:36;7.20;99.90
9383;DHT22;4731;49.708;10.816;2022-12-29T00:10:03;7.20;99.90
9383;DHT22;4731;49.708;10.816;2022-12-29T00:12:30;7.30;99.90
9383;DHT22;4731;49.708;10.816;2022-12-29T00:15:17;7.40;99.90
9383;DHT22;4731;49.708;10.816;2022-12-29T00:18:02;7.20;99.90
9383;DHT22;4731;49.708;10.816;2022-12-29T00:20:29;7.30;99.90
9383;DHT22;4731;49.708;10.816;2022-12-29T00:23:28;7.30;99.90
9383;DHT22;4731;49.708;10.816;2022-12-29T00:26:13;7.30;99.90
9383;DHT22;4731;49.708;10.816;2022-12-29T00:28:59;7.30;99.90
9383;DHT22;4731;49.708;10.816;2022-12-29T00:31:43;7.30;99.90
9383;DHT22;4731;49.708;10.816;2022-12-29T00:34:29;7.20;99.90
9383;DHT22;4731;49.708;10.816;2022-12-29T00:37:13;7.40;99.90
9383;DHT22;4731;49.708;10.816;2022-12-29T00:39:40;7.40;99.90
9383;DHT22;4731;49.708;10.816;2022-12-29T00:42:24;7.40;99.90
9383;DHT22;4731;49.708;10.816;2022-12-29T00:45:08;7.50;99.90
9383;DHT22;4731;49.708;10.816;2022-12-29T00:47:35;7.50;99.90
9383;DHT22;4731;49.708;10.816;2022-12-29T00:50:04;7.60;99.90
9383;DHT22;4731;49.708;10.816;2022-12-29T00:52:30;7.70;99.90
9383;DHT22;4731;49.708;10.816;2022-12-29T00:54:56;7.60;99.90
9383;DHT22;4731;49.708;10.816;2022-12-29T00:57:23;7.60;99.90
9383;DHT22;4731;49.708;10.816;2022-12-29T00:59:50;7.60;99.90
9383;DHT22;4731;49.708;10.816;2022-12-29T01:02:17;7.60;99.90
9383;DHT22;4731;49.708;10.816;2022-12-29T01:04:44;7.60;99.90
9383;DHT22;4731;49.708;10.816;2022-12-29T01:07:12;7.60;99.90
9383;DHT22;4731;49.708;10.816;2022-12-29T01:09:39;7.50;99.90
9383;DHT22;4731;49.708;10.816;2022-12-29T01:12:23;7.50;99.90
9383;DHT22;4731;49.708;10.816;2022-12-29T01:15:05;7.50;99.90
9383;DHT22;4731;49.708;10.816;2022-12-29T01:17:32;7.40;99.90
9383;DHT22;4731;49.708;10.816;2022-12-29T01:19:59;7.40;99.90
9383;DHT22;4731;49.708;10.816;2022-12-29T01:22:27;7.40;99.90
9383;DHT22;4731;49.708;10.816;2022-12-29T01:24:54;7.40;99.90
9383;DHT22;4731;49.708;10.816;2022-12-29T01:27:20;7.40;99.90
9383;DHT22;4731;49.708;10.816;2022-12-29T01:29:47;7.40;99.90
9383;DHT22;4731;49.708;10.816;2022-12-29T01:32:14;7.50;99.90
9383;DHT22;4731;49.708;10.816;2022-12-29T01:34:40;7.50;99.90
9383;DHT22;4731;49.708;10.816;2022-12-29T01:37:07;7.50;99.90
9383;DHT22;4731;49.708;10.816;2022-12-29T01:39:35;7.50;99.90
9383;DHT22;4731;49.708;10.816;2022-12-29T01:42:02;7.50;99.90
9383;DHT22;4731;49.708;10.816;2022-12-29T01:44:56;7.50;99.90
9383;DHT22;4731;49.708;10.816;2022-12-29T01:47:36;7.50;99.90
9383;DHT22;4731;49.708;10.816;2022-12-29T01:50:08;7.50;99.90
9383;DHT22;4731;49.708;10.816;2022-12-29T01:52:40;7.60;99.90
9383;DHT22;4731;49.708;10.816;2022-12-29T01:55:11;7.60;99.90
9383;DHT22;4731;49.708;10.816;2022-12-29T01:57:41;7.60;99.90
9383;DHT22;4731;49.708;10.816;2022-12-29T02:00:12;7.60;99.90
9383;DHT22;4731;49.708;10.816;2022-12-29T02:02:41;7.70;99.90
9383;DHT22;4731;49.708;10.816;2022-12-29T02:05:14;7.70;99.90
9383;DHT22;4731;49.708;10.816;2022-12-29T02:07:42;7.70;99.90
9383;DHT22;4731;49.708;10.816;2022-12-29T02:10:11;7.60;99.90
9383;DHT22;4731;49.708;10.816;2022-12-29T02:12:38;7.70;99.90
9383;DHT22;4731;49.708;10.816;2022-12-29T02:15:06;7.70;99.90
9383;DHT22;4731;49.708;10.816;2022-12-29T02:17:45;7.60;99.90
9383;DHT22;4731;49.708;10.816;2022-12-29T02:23:42;7.70;99.90
9383;DHT22;4731;49.708;10.816;2022-12-29T02:26:42;7.80;99.90
9383;DHT22;4731;49.708;10.816;2022-12-29T02:29:28;7.80;99.90
9383;DHT22;4731;49.708;10.816;2022-12-29T02:32:03;8.00;99.90
9383;DHT22;4731;49.708;10.816;2022-12-29T02:34:39;8.20;99.90
9383;DHT22;4731;49.708;10.816;2022-12-29T02:37:15;8.30;99.90
9383;DHT22;4731;49.708;10.816;2022-12-29T02:39:50;8.50;99.90
9383;DHT22;4731;49.708;10.816;2022-12-29T02:42:23;10.90;99.90
9383;DHT22;4731;49.708;10.816;2022-12-29T02:44:55;8.80;99.90
9383;DHT22;4731;49.708;10.816;2022-12-29T02:47:32;8.90;99.90
9383;DHT22;4731;49.708;10.816;2022-12-29T02:50:03;8.90;99.90
9383;DHT22;4731;49.708;10.816;2022-12-29T02:52:36;8.90;99.90
9383;DHT22;4731;49.708;10.816;2022-12-29T02:55:05;9.00;99.90
9383;DHT22;4731;49.708;10.816;2022-12-29T02:57:34;9.00;99.90
9383;DHT22;4731;49.708;10.816;2022-12-29T03:00:05;9.00;99.90
9383;DHT22;4731;49.708;10.816;2022-12-29T03:03:03;9.00;99.90
9383;DHT22;4731;49.708;10.816;2022-12-29T03:05:58;9.10;99.90
9383;DHT22;4731;49.708;10.816;2022-12-29T03:08:34;9.20;99.90
9383;DHT22;4731;49.708;10.816;2022-12-29T03:11:03;9.20;99.90
9383;DHT22;4731;49.708;10.816;2022-12-29T03:13:35;9.20;99.90
9383;DHT22;4731;49.708;10.816;2022-12-29T03:16:27;10.50;99.90
9383;DHT22;4731;49.708;10.816;2022-12-29T03:19:00;9.10;99.90
9383;DHT22;4731;49.708;10.816;2022-12-29T03:21:33;9.10;99.90
9383;DHT22;4731;49.708;10.816;2022-12-29T03:24:23;9.10;99.90
9383;DHT22;4731;49.708;10.816;2022-12-29T03:26:54;9.10;99.90
9383;DHT22;4731;49.708;10.816;2022-12-29T03:29:22;9.00;99.90
9383;DHT22;4731;49.708;10.816;2022-12-29T03:31:51;9.00;99.90
9383;DHT22;4731;49.708;10.816;2022-12-29T03:34:21;9.00;99.90
9383;DHT22;4731;49.708;10.816;2022-12-29T03:36:52;9.00;99.90
9383;DHT22;4731;49.708;10.816;2022-12-29T03:39:22;8.90;99.90
9383;DHT22;4731;49.708;10.816;2022-12-29T03:41:51;8.80;99.90
9383;DHT22;4731;49.708;10.816;2022-12-29T03:44:20;8.70;99.90
9383;DHT22;4731;49.708;10.816;2022-12-29T03:46:47;8.50;99.90
9383;DHT22;4731;49.708;10.816;2022-12-29T03:49:14;8.40;99.90
9383;DHT22;4731;49.708;10.816;2022-12-29T03:51:42;8.30;99.90
9383;DHT22;4731;49.708;10.816;2022-12-29T03:54:08;10.80;99.90
9383;DHT22;4731;49.708;10.816;2022-12-29T03:56:35;8.20;99.90
9383;DHT22;4731;49.708;10.816;2022-12-29T03:59:02;8.20;99.90
9383;DHT22;4731;49.708;10.816;2022-12-29T04:01:29;8.10;99.90
9383;DHT22;4731;49.708;10.816;2022-12-29T04:03:55;8.10;99.90
9383;DHT22;4731;49.708;10.816;2022-12-29T04:06:22;8.10;99.90
9383;DHT22;4731;49.708;10.816;2022-12-29T04:08:51;8.00;99.90
9383;DHT22;4731;49.708;10.816;2022-12-29T04:11:18;8.00;99.90
9383;DHT22;4731;49.708;10.816;2022-12-29T04:13:44;7.90;99.90
9383;DHT22;4731;49.708;10.816;2022-12-29T04:16:11;7.80;99.90
9383;DHT22;4731;49.708;10.816;2022-12-29T04:18:38;7.80;99.90
9383;DHT22;4731;49.708;10.816;2022-12-29T04:21:05;7.80;99.90
9383;DHT22;4731;49.708;10.816;2022-12-29T04:23:33;7.80;99.90
9383;DHT22;4731;49.708;10.816;2022-12-29T04:26:02;7.80;99.90
9383;DHT22;4731;49.708;10.816;2022-12-29T04:28:30;7.70;99.90
9383;DHT22;4731;49.708;10.816;2022-12-29T04:30:56;7.70;99.90
9383;DHT22;4731;49.708;10.816;2022-12-29T04:33:23;7.60;99.90
9383;DHT22;4731;49.708;10.816;2022-12-29T04:35:51;7.80;99.90
9383;DHT22;4731;49.708;10.816;2022-12-29T04:38:19;7.50;99.90
9383;DHT22;4731;49.708;10.816;2022-12-29T04:40:46;7.50;99.90
9383;DHT22;4731;49.708;10.816;2022-12-29T04:43:15;7.50;99.90
9383;DHT22;4731;49.708;10.816;2022-12-29T04:45:43;7.50;99.90
9383;DHT22;4731;49.708;10.816;2022-12-29T04:48:10;7.50;99.90
9383;DHT22;4731;49.708;10.816;2022-12-29T04:50:37;7.50;99.90
9383;DHT22;4731;49.708;10.816;2022-12-29T04:53:04;7.50;99.90
9383;DHT22;4731;49.708;10.816;2022-12-29T04:55:31;7.50;99.90
9383;DHT22;4731;49.708;10.816;2022-12-29T04:57:58;7.50;99.90
9383;DHT22;4731;49.708;10.816;2022-12-29T05:00:26;7.60;99.90
9383;DHT22;4731;49.708;10.816;2022-12-29T05:02:52;7.60;99.90
9383;DHT22;4731;49.708;10.816;2022-12-29T05:05:19;7.60;99.90
9383;DHT22;4731;49.708;10.816;2022-12-29T05:07:46;7.60;99.90
9383;DHT22;4731;49.708;10.816;2022-12-29T05:10:13;7.60;99.90
9383;DHT22;4731;49.708;10.816;2022-12-29T05:12:39;7.50;99.90
9383;DHT22;4731;49.708;10.816;2022-12-29T05:15:08;8.10;99.90
9383;DHT22;4731;49.708;10.816;2022-12-29T05:17:37;7.40;99.90
9383;DHT22;4731;49.708;10.816;2022-12-29T05:20:04;7.40;99.90
9383;DHT22;4731;49.708;10.816;2022-12-29T05:22:31;7.50;99.90
9383;DHT22;4731;49.708;10.816;2022-12-29T05:24:58;7.50;99.90
9383;DHT22;4731;49.708;10.816;2022-12-29T05:27:25;7.40;99.90
9383;DHT22;4731;49.708;10.816;2022-12-29T05:29:52;7.30;99.90
9383;DHT22;4731;49.708;10.816;2022-12-29T05:32:19;7.30;99.90
9383;DHT22;4731;49.708;10.816;2022-12-29T05:34:47;7.20;99.90
9383;DHT22;4731;49.708;10.816;2022-12-29T05:37:13;7.20;99.90
9383;DHT22;4731;49.708;10.816;2022-12-29T05:39:40;7.10;99.90
9383;DHT22;4731;49.708;10.816;2022-12-29T05:42:07;7.10;99.90
9383;DHT22;4731;49.708;10.816;2022-12-29T05:44:33;7.00;99.90
9383;DHT22;4731;49.708;10.816;2022-12-29T05:47:00;6.90;99.90
9383;DHT22;4731;49.708;10.816;2022-12-29T05:49:27;6.80;99.90
9383;DHT22;4731;49.708;10.816;2022-12-29T05:51:55;6.80;99.90
9383;DHT22;4731;49.708;10.816;2022-12-29T05:54:22;6.80;99.90
9383;DHT22;4731;49.708;10.816;2022-12-29T05:56:48;6.70;99.90
9383;DHT22;4731;49.708;10.816;2022-12-29T05:59:15;6.70;99.90
9383;DHT22;4731;49.708;10.816;2022-12-29T06:01:42;6.60;99.90
9383;DHT22;4731;49.708;10.816;2022-12-29T06:04:08;6.50;99.90
9383;DHT22;4731;49.708;10.816;2022-12-29T06:06:35;6.60;99.90
9383;DHT22;4731;49.708;10.816;2022-12-29T06:09:03;6.60;99.90
9383;DHT22;4731;49.708;10.816;2022-12-29T06:11:30;6.60;99.90
9383;DHT22;4731;49.708;10.816;2022-12-29T06:13:56;6.60;99.90
9383;DHT22;4731;49.708;10.816;2022-12-29T06:16:23;6.60;99.90
9383;DHT22;4731;49.708;10.816;2022-12-29T06:18:50;6.60;99.90
9383;DHT22;4731;49.708;10.816;2022-12-29T06:21:16;7.40;99.90
9383;DHT22;4731;49.708;10.816;2022-12-29T06:23:43;6.60;99.90
9383;DHT22;4731;49.708;10.816;2022-12-29T06:26:11;6.70;99.90
9383;DHT22;4731;49.708;10.816;2022-12-29T06:28:38;6.60;99.90
9383;DHT22;4731;49.708;10.816;2022-12-29T06:31:05;9.30;99.90
9383;DHT22;4731;49.708;10.816;2022-12-29T06:33:34;6.80;99.90
9383;DHT22;4731;49.708;10.816;2022-12-29T06:36:01;8.10;99.90
9383;DHT22;4731;49.708;10.816;2022-12-29T06:38:28;7.00;99.90
9383;DHT22;4731;49.708;10.816;2022-12-29T06:40:54;7.20;99.90
9383;DHT22;4731;49.708;10.816;2022-12-29T06:43:23;7.20;99.90
9383;DHT22;4731;49.708;10.816;2022-12-29T06:45:49;7.60;99.90
9383;DHT22;4731;49.708;10.816;2022-12-29T06:48:16;7.20;99.90
9383;DHT22;4731;49.708;10.816;2022-12-29T06:50:43;7.30;99.90
9383;DHT22;4731;49.708;10.816;2022-12-29T06:53:09;7.30;99.90
9383;DHT22;4731;49.708;10.816;2022-12-29T06:55:36;7.30;99.90
9383;DHT22;4731;49.708;10.816;2022-12-29T06:58:03;7.20;99.90
9383;DHT22;4731;49.708;10.816;2022-12-29T07:00:31;7.30;99.90
9383;DHT22;4731;49.708;10.816;2022-12-29T07:02:58;7.30;99.90
9383;DHT22;4731;49.708;10.816;2022-12-29T07:05:25;7.40;99.90
9383;DHT22;4731;49.708;10.816;2022-12-29T07:07:53;7.50;99.90
9383;DHT22;4731;49.708;10.816;2022-12-29T07:10:20;7.50;99.90
9383;DHT22;4731;49.708;10.816;2022-12-29T07:12:46;7.50;99.90
9383;DHT22;4731;49.708;10.816;2022-12-29T07:15:13;7.50;99.90
9383;DHT22;4731;49.708;10.816;2022-12-29T07:17:41;7.60;99.90
9383;DHT22;4731;49.708;10.816;2022-12-29T07:20:09;7.60;99.90
9383;DHT22;4731;49.708;10.816;2022-12-29T07:22:35;7.60;99.90
9383;DHT22;4731;49.708;10.816;2022-12-29T07:25:03;7.70;99.90
9383;DHT22;4731;49.708;10.816;2022-12-29T07:27:29;7.70;99.90
9383;DHT22;4731;49.708;10.816;2022-12-29T07:29:56;7.70;99.90
9383;DHT22;4731;49.708;10.816;2022-12-29T07:32:23;7.60;99.90
9383;DHT22;4731;49.708;10.816;2022-12-29T07:34:52;7.70;99.90
9383;DHT22;4731;49.708;10.816;2022-12-29T07:37:18;7.80;99.90
9383;DHT22;4731;49.708;10.816;2022-12-29T07:39:45;8.00;99.90
9383;DHT22;4731;49.708;10.816;2022-12-29T07:42:12;7.90;99.90
9383;DHT22;4731;49.708;10.816;2022-12-29T07:44:38;8.00;99.90
9383;DHT22;4731;49.708;10.816;2022-12-29T07:47:05;7.90;99.90
9383;DHT22;4731;49.708;10.816;2022-12-29T07:49:32;7.90;99.90
9383;DHT22;4731;49.708;10.816;2022-12-29T07:52:00;8.00;99.90
9383;DHT22;4731;49.708;10.816;2022-12-29T07:54:27;8.00;99.90
9383;DHT22;4731;49.708;10.816;2022-12-29T07:56:53;8.00;99.90
9383;DHT22;4731;49.708;10.816;2022-12-29T07:59:21;8.00;99.90
9383;DHT22;4731;49.708;10.816;2022-12-29T08:01:47;7.90;99.90
9383;DHT22;4731;49.708;10.816;2022-12-29T08:04:14;8.00;99.90
9383;DHT22;4731;49.708;10.816;2022-12-29T08:06:41;7.90;99.90
9383;DHT22;4731;49.708;10.816;2022-12-29T08:09:09;7.90;99.90
9383;DHT22;4731;49.708;10.816;2022-12-29T08:11:36;8.00;99.90
9383;DHT22;4731;49.708;10.816;2022-12-29T08:14:03;9.30;99.90
9383;DHT22;4731;49.708;10.816;2022-12-29T08:16:30;8.00;99.90
9383;DHT22;4731;49.708;10.816;2022-12-29T08:18:57;8.10;99.90
9383;DHT22;4731;49.708;10.816;2022-12-29T08:21:24;8.10;99.90
9383;DHT22;4731;49.708;10.816;2022-12-29T08:23:51;8.10;99.90
9383;DHT22;4731;49.708;10.816;2022-12-29T08:26:19;8.20;99.90
9383;DHT22;4731;49.708;10.816;2022-12-29T08:28:46;8.30;99.90
9383;DHT22;4731;49.708;10.816;2022-12-29T08:31:13;8.30;99.90
9383;DHT22;4731;49.708;10.816;2022-12-29T08:33:40;8.30;99.90
9383;DHT22;4731;49.708;10.816;2022-12-29T08:36:09;8.30;99.90
9383;DHT22;4731;49.708;10.816;2022-12-29T08:38:35;8.40;99.90
9383;DHT22;4731;49.708;10.816;2022-12-29T08:41:02;8.40;99.90
9383;DHT22;4731;49.708;10.816;2022-12-29T08:43:30;8.40;99.90
9383;DHT22;4731;49.708;10.816;2022-12-29T08:45:57;8.60;99.90
9383;DHT22;4731;49.708;10.816;2022-12-29T08:48:24;8.50;99.90
9383;DHT22;4731;49.708;10.816;2022-12-29T08:50:51;10.20;99.90
9383;DHT22;4731;49.708;10.816;2022-12-29T08:53:18;8.70;99.90
9383;DHT22;4731;49.708;10.816;2022-12-29T08:55:46;8.90;99.90
9383;DHT22;4731;49.708;10.816;2022-12-29T08:58:13;10.90;99.90
9383;DHT22;4731;49.708;10.816;2022-12-29T09:00:41;8.70;99.90
9383;DHT22;4731;49.708;10.816;2022-12-29T09:03:08;8.60;99.90
9383;DHT22;4731;49.708;10.816;2022-12-29T09:05:35;8.70;99.90
9383;DHT22;4731;49.708;10.816;2022-12-29T09:08:02;8.70;99.90
9383;DHT22;4731;49.708;10.816;2022-12-29T09:10:30;8.80;99.90
9383;DHT22;4731;49.708;10.816;2022-12-29T09:12:56;8.90;99.90
9383;DHT22;4731;49.708;10.816;2022-12-29T09:15:23;9.00;99.90
9383;DHT22;4731;49.708;10.816;2022-12-29T09:17:51;9.10;99.90
9383;DHT22;4731;49.708;10.816;2022-12-29T09:20:18;9.10;99.90
9383;DHT22;4731;49.708;10.816;2022-12-29T09:22:46;9.20;99.90
9383;DHT22;4731;49.708;10.816;2022-12-29T09:25:14;9.20;99.90
9383;DHT22;4731;49.708;10.816;2022-12-29T09:27:41;9.30;99.90
9383;DHT22;4731;49.708;10.816;2022-12-29T09:30:10;9.40;99.90
9383;DHT22;4731;49.708;10.816;2022-12-29T09:32:37;9.50;99.90
9383;DHT22;4731;49.708;10.816;2022-12-29T09:35:06;9.40;99.90
9383;DHT22;4731;49.708;10.816;2022-12-29T09:37:33;9.40;99.90
9383;DHT22;4731;49.708;10.816;2022-12-29T09:40:00;9.50;99.90
9383;DHT22;4731;49.708;10.816;2022-12-29T09:42:32;9.50;99.90
9383;DHT22;4731;49.708;10.816;2022-12-29T09:45:10;9.50;99.90
9383;DHT22;4731;49.708;10.816;2022-12-29T09:47:39;11.30;99.90
9383;DHT22;4731;49.708;10.816;2022-12-29T09:50:17;9.60;99.90
9383;DHT22;4731;49.708;10.816;2022-12-29T09:52:49;9.60;99.90
9383;DHT22;4731;49.708;10.816;2022-12-29T09:55:20;9.40;99.90
9383;DHT22;4731;49.708;10.816;2022-12-29T09:57:49;9.60;99.90
9383;DHT22;4731;49.708;10.816;2022-12-29T10:00:21;9.60;99.90
9383;DHT22;4731;49.708;10.816;2022-12-29T10:02:49;9.50;99.90
9383;DHT22;4731;49.708;10.816;2022-12-29T10:05:31;9.50;99.90
9383;DHT22;4731;49.708;10.816;2022-12-29T10:08:14;9.50;99.90
9383;DHT22;4731;49.708;10.816;2022-12-29T10:10:49;9.60;99.90
9383;DHT22;4731;49.708;10.816;2022-12-29T10:13:28;9.50;99.90
9383;DHT22;4731;49.708;10.816;2022-12-29T10:16:02;9.60;99.90
9383;DHT22;4731;49.708;10.816;2022-12-29T10:18:59;9.60;99.90
9383;DHT22;4731;49.708;10.816;2022-12-29T10:21:40;9.60;99.90
9383;DHT22;4731;49.708;10.816;2022-12-29T10:24:12;9.70;99.90
9383;DHT22;4731;49.708;10.816;2022-12-29T10:26:41;10.50;99.90
9383;DHT22;4731;49.708;10.816;2022-12-29T10:29:14;12.50;99.90
9383;DHT22;4731;49.708;10.816;2022-12-29T10:31:44;9.90;99.90
9383;DHT22;4731;49.708;10.816;2022-12-29T10:34:20;9.80;99.90
9383;DHT22;4731;49.708;10.816;2022-12-29T10:36:51;10.30;99.90
9383;DHT22;4731;49.708;10.816;2022-12-29T10:39:23;10.00;99.90
9383;DHT22;4731;49.708;10.816;2022-12-29T10:41:55;10.10;99.90
9383;DHT22;4731;49.708;10.816;2022-12-29T10:44:29;10.10;99.90
9383;DHT22;4731;49.708;10.816;2022-12-29T10:46:59;10.30;99.90
9383;DHT22;4731;49.708;10.816;2022-12-29T10:49:28;10.30;99.90
9383;DHT22;4731;49.708;10.816;2022-12-29T10:52:00;10.30;99.90
9383;DHT22;4731;49.708;10.816;2022-12-29T10:54:33;10.40;99.90
9383;DHT22;4731;49.708;10.816;2022-12-29T10:57:08;12.40;99.90
9383;DHT22;4731;49.708;10.816;2022-12-29T10:59:36;13.00;99.90
9383;DHT22;4731;49.708;10.816;2022-12-29T11:02:25;12.20;99.90
9383;DHT22;4731;49.708;10.816;2022-12-29T11:04:59;10.60;99.90
9383;DHT22;4731;49.708;10.816;2022-12-29T11:07:30;13.40;99.90
9383;DHT22;4731;49.708;10.816;2022-12-29T11:10:16;10.50;99.90
9383;DHT22;4731;49.708;10.816;2022-12-29T11:12:55;10.60;99.90
9383;DHT22;4731;49.708;10.816;2022-12-29T11:15:22;10.60;99.90
9383;DHT22;4731;49.708;10.816;2022-12-29T11:17:51;10.90;99.90
9383;DHT22;4731;49.708;10.816;2022-12-29T11:20:33;10.60;99.90
9383;DHT22;4731;49.708;10.816;2022-12-29T11:23:02;10.60;99.90
9383;DHT22;4731;49.708;10.816;2022-12-29T11:25:29;10.60;99.90
9383;DHT22;4731;49.708;10.816;2022-12-29T11:27:59;11.40;99.90
9383;DHT22;4731;49.708;10.816;2022-12-29T11:30:28;10.70;99.90
9383;DHT22;4731;49.708;10.816;2022-12-29T11:32:56;10.70;99.90
9383;DHT22;4731;49.708;10.816;2022-12-29T11:35:31;10.70;99.90
9383;DHT22;4731;49.708;10.816;2022-12-29T11:37:58;10.80;99.90
9383;DHT22;4731;49.708;10.816;2022-12-29T11:40:38;10.80;99.90
9383;DHT22;4731;49.708;10.816;2022-12-29T11:43:05;10.70;99.90
9383;DHT22;4731;49.708;10.816;2022-12-29T11:45:34;10.70;99.90
9383;DHT22;4731;49.708;10.816;2022-12-29T11:48:07;10.60;99.90
9383;DHT22;4731;49.708;10.816;2022-12-29T11:50:39;10.80;99.90
9383;DHT22;4731;49.708;10.816;2022-12-29T11:53:15;10.80;99.90
9383;DHT22;4731;49.708;10.816;2022-12-29T11:55:52;10.90;99.90
9383;DHT22;4731;49.708;10.816;2022-12-29T11:58:19;10.90;99.90
9383;DHT22;4731;49.708;10.816;2022-12-29T12:00:49;11.00;99.90
9383;DHT22;4731;49.708;10.816;2022-12-29T12:03:18;11.10;99.90
9383;DHT22;4731;49.708;10.816;2022-12-29T12:05:48;11.30;99.90
9383;DHT22;4731;49.708;10.816;2022-12-29T12:08:20;11.40;99.90
9383;DHT22;4731;49.708;10.816;2022-12-29T12:10:54;12.70;99.90
9383;DHT22;4731;49.708;10.816;2022-12-29T12:13:27;11.60;99.90
9383;DHT22;4731;49.708;10.816;2022-12-29T12:16:00;11.60;99.90
9383;DHT22;4731;49.708;10.816;2022-12-29T12:18:37;11.50;99.90
9383;DHT22;4731;49.708;10.816;2022-12-29T12:21:10;11.50;99.90
9383;DHT22;4731;49.708;10.816;2022-12-29T12:23:46;11.60;99.90
9383;DHT22;4731;49.708;10.816;2022-12-29T12:26:20;13.70;99.90
9383;DHT22;4731;49.708;10.816;2022-12-29T12:28:51;11.50;99.90
9383;DHT22;4731;49.708;10.816;2022-12-29T12:31:27;12.40;99.90
9383;DHT22;4731;49.708;10.816;2022-12-29T12:34:03;12.20;99.90
9383;DHT22;4731;49.708;10.816;2022-12-29T12:36:49;11.40;99.90
9383;DHT22;4731;49.708;10.816;2022-12-29T12:39:26;11.50;99.90
9383;DHT22;4731;49.708;10.816;2022-12-29T12:42:06;11.30;99.90
9383;DHT22;4731;49.708;10.816;2022-12-29T12:44:44;11.40;99.90
9383;DHT22;4731;49.708;10.816;2022-12-29T12:47:24;11.40;99.90
9383;DHT22;4731;49.708;10.816;2022-12-29T12:50:15;11.40;99.90
9383;DHT22;4731;49.708;10.816;2022-12-29T12:56:00;11.60;99.90
9383;DHT22;4731;49.708;10.816;2022-12-29T12:58:37;11.70;99.90
9383;DHT22;4731;49.708;10.816;2022-12-29T13:01:15;11.70;99.90
9383;DHT22;4731;49.708;10.816;2022-12-29T13:03:53;11.90;99.90
9383;DHT22;4731;49.708;10.816;2022-12-29T13:06:35;12.10;99.90
9383;DHT22;4731;49.708;10.816;2022-12-29T13:09:27;12.30;99.90
9383;DHT22;4731;49.708;10.816;2022-12-29T13:12:06;12.70;99.90
9383;DHT22;4731;49.708;10.816;2022-12-29T13:14:45;12.80;99.90
9383;DHT22;4731;49.708;10.816;2022-12-29T13:17:20;15.20;99.90
9383;DHT22;4731;49.708;10.816;2022-12-29T13:19:55;12.50;99.90
9383;DHT22;4731;49.708;10.816;2022-12-29T13:22:28;13.90;99.90
9383;DHT22;4731;49.708;10.816;2022-12-29T13:25:15;12.40;99.90
9383;DHT22;4731;49.708;10.816;2022-12-29T13:27:50;12.30;99.90
9383;DHT22;4731;49.708;10.816;2022-12-29T13:30:23;12.10;99.90
9383;DHT22;4731;49.708;10.816;2022-12-29T13:32:59;12.10;99.90
9383;DHT22;4731;49.708;10.816;2022-12-29T13:35:40;12.10;99.90
9383;DHT22;4731;49.708;10.816;2022-12-29T13:38:18;14.90;99.90
9383;DHT22;4731;49.708;10.816;2022-12-29T13:40:50;12.00;99.90
9383;DHT22;4731;49.708;10.816;2022-12-29T13:43:20;12.00;99.90
9383;DHT22;4731;49.708;10.816;2022-12-29T13:45:57;12.00;99.90
9383;DHT22;4731;49.708;10.816;2022-12-29T13:48:33;14.20;99.90
9383;DHT22;4731;49.708;10.816;2022-12-29T13:51:02;12.60;99.90
9383;DHT22;4731;49.708;10.816;2022-12-29T13:53:35;11.80;99.90
9383;DHT22;4731;49.708;10.816;2022-12-29T13:56:09;11.70;99.90
9383;DHT22;4731;49.708;10.816;2022-12-29T13:58:44;11.80;99.90
9383;DHT22;4731;49.708;10.816;2022-12-29T14:01:18;11.70;99.90
9383;DHT22;4731;49.708;10.816;2022-12-29T14:03:49;11.70;99.90
9383;DHT22;4731;49.708;10.816;2022-12-29T14:06:20;11.70;99.90
9383;DHT22;4731;49.708;10.816;2022-12-29T14:08:48;11.60;99.90
9383;DHT22;4731;49.708;10.816;2022-12-29T14:11:17;11.60;99.90
9383;DHT22;4731;49.708;10.816;2022-12-29T14:13:47;11.60;99.90
9383;DHT22;4731;49.708;10.816;2022-12-29T14:16:26;11.60;99.90
9383;DHT22;4731;49.708;10.816;2022-12-29T14:18:54;11.60;99.90
9383;DHT22;4731;49.708;10.816;2022-12-29T14:21:24;11.50;99.90
9383;DHT22;4731;49.708;10.816;2022-12-29T14:26:43;11.40;99.90
9383;DHT22;4731;49.708;10.816;2022-12-29T14:32:00;11.30;99.90
9383;DHT22;4731;49.708;10.816;2022-12-29T14:34:29;11.20;99.90
9383;DHT22;4731;49.708;10.816;2022-12-29T14:36:57;11.10;99.90
9383;DHT22;4731;49.708;10.816;2022-12-29T14:39:37;11.00;99.90
9383;DHT22;4731;49.708;10.816;2022-12-29T14:42:06;10.80;99.90
9383;DHT22;4731;49.708;10.816;2022-12-29T14:44:33;10.90;99.90
9383;DHT22;4731;49.708;10.816;2022-12-29T14:47:05;11.00;99.90
9383;DHT22;4731;49.708;10.816;2022-12-29T14:49:40;10.90;99.90
9383;DHT22;4731;49.708;10.816;2022-12-29T14:52:15;11.00;99.90
9383;DHT22;4731;49.708;10.816;2022-12-29T14:54:47;10.90;99.90
9383;DHT22;4731;49.708;10.816;2022-12-29T15:00:12;10.80;99.90
9383;DHT22;4731;49.708;10.816;2022-12-29T15:02:46;10.70;99.90
9383;DHT22;4731;49.708;10.816;2022-12-29T15:05:25;10.70;99.90
9383;DHT22;4731;49.708;10.816;2022-12-29T15:07:55;10.90;99.90
9383;DHT22;4731;49.708;10.816;2022-12-29T15:10:23;10.90;99.90
9383;DHT22;4731;49.708;10.816;2022-12-29T15:12:54;10.80;99.90
9383;DHT22;4731;49.708;10.816;2022-12-29T15:15:23;10.70;99.90
9383;DHT22;4731;49.708;10.816;2022-12-29T15:17:52;10.70;99.90
9383;DHT22;4731;49.708;10.816;2022-12-29T15:20:25;10.70;99.90
9383;DHT22;4731;49.708;10.816;2022-12-29T15:22:55;10.70;99.90
9383;DHT22;4731;49.708;10.816;2022-12-29T15:25:22;10.70;99.90
9383;DHT22;4731;49.708;10.816;2022-12-29T15:27:51;10.70;99.90
9383;DHT22;4731;49.708;10.816;2022-12-29T15:30:19;10.70;99.90
9383;DHT22;4731;49.708;10.816;2022-12-29T15:32:47;10.70;99.90
9383;DHT22;4731;49.708;10.816;2022-12-29T15:35:25;10.70;99.90
9383;DHT22;4731;49.708;10.816;2022-12-29T15:37:52;10.70;99.90
9383;DHT22;4731;49.708;10.816;2022-12-29T15:40:24;10.70;99.90
9383;DHT22;4731;49.708;10.816;2022-12-29T15:43:10;10.60;99.90
9383;DHT22;4731;49.708;10.816;2022-12-29T15:45:40;11.00;99.90
9383;DHT22;4731;49.708;10.816;2022-12-29T15:48:14;10.80;99.90
9383;DHT22;4731;49.708;10.816;2022-12-29T15:50:44;10.80;99.90
9383;DHT22;4731;49.708;10.816;2022-12-29T15:53:12;10.80;99.90
9383;DHT22;4731;49.708;10.816;2022-12-29T15:55:44;10.80;99.90
9383;DHT22;4731;49.708;10.816;2022-12-29T15:58:19;10.80;99.90
9383;DHT22;4731;49.708;10.816;2022-12-29T16:00:48;10.80;99.90
9383;DHT22;4731;49.708;10.816;2022-12-29T16:03:16;13.30;99.90
9383;DHT22;4731;49.708;10.816;2022-12-29T16:05:51;10.70;99.90
9383;DHT22;4731;49.708;10.816;2022-12-29T16:08:27;10.70;99.90
9383;DHT22;4731;49.708;10.816;2022-12-29T16:10:55;10.50;99.90
9383;DHT22;4731;49.708;10.816;2022-12-29T16:13:26;10.40;99.90
9383;DHT22;4731;49.708;10.816;2022-12-29T16:15:59;10.30;99.90
9383;DHT22;4731;49.708;10.816;2022-12-29T16:18:28;10.30;99.90
9383;DHT22;4731;49.708;10.816;2022-12-29T16:20:57;10.40;99.90
9383;DHT22;4731;49.708;10.816;2022-12-29T16:23:26;10.40;99.90
9383;DHT22;4731;49.708;10.816;2022-12-29T16:25:55;10.50;99.90
9383;DHT22;4731;49.708;10.816;2022-12-29T16:28:25;12.90;99.90
9383;DHT22;4731;49.708;10.816;2022-12-29T16:30:58;10.40;99.90
9383;DHT22;4731;49.708;10.816;2022-12-29T16:33:39;10.40;99.90